CheckWX is a tool to help pilots better visualize weather data.  It is not intended as a substitute for an official pre-flight weather briefing.

05:09:38 UTC

D07 METAR
Faith Municipal Airport
Faith, South Dakota, USA
Current

14 mins ago

KD07 240456Z AUTO 13016G26KT 19/14 A3012 RMK AO1 PK WND 14026/0443 SLP186 T01940144
Observed
Jul-24 @ 04:56 UTC
Wind
  • 130° at 16 KTS
  • Gusting to 26 KTS
Visibility
Temperature
19°C / 66°F
Dewpoint
14°C / 57°F
Humidity
73%
Altimeter
30.12" Hg
Pressure
1020.02 hPa
Previous

1 hour ago

KD07 240356Z AUTO 13017KT 21/15 A3013 RMK AO1 SLP189 T02060150
Observed
Jul-24 @ 03:56 UTC
Wind
  • 130° at 17 KTS
Visibility
Temperature
21°C / 70°F
Dewpoint
15°C / 59°F
Humidity
69%
Altimeter
30.13" Hg
Pressure
1020.32 hPa
Previous

2 hours ago

KD07 240256Z AUTO 13014G22KT 21/16 A3012 RMK AO1 SLP187 T02110156 58006
Observed
Jul-24 @ 02:56 UTC
Wind
  • 130° at 14 KTS
  • Gusting to 22 KTS
Visibility
Temperature
21°C / 70°F
Dewpoint
16°C / 61°F
Humidity
73%
Altimeter
30.12" Hg
Pressure
1020.02 hPa